X  Close Metar Aviation Weather Data     RPLL Ninoy Aquino International Airport
Temperature
30°C Temperature
23°C Dewpoint
66% Humidity



Wind
11 KM/H
7 MPH
3 M/S
6 KTS



120°
ESE
Current Conditions

Partly Cloudy Partly Cloudy
Pressure 1009.92 (hPa) - 29.82 (inHg)
Visibility 6.2 (mile) - 10 (km)
Airport
Airport-code RPLL

Location: Ninoy Aquino International Airport
Distance: 20 (km)

Metar:
RPLL 281000Z 12006KT 070V170 9999 FEW023 BKN100 30/23 Q1010 NOSIG RMK A2983

Time: 02-28-2021 6:00 pm CST